METAR AND TAF INFORMATION
METAR FOR HSSS
ADDS - METARS form results

(0724 UTC 16 January 2019)
Data provider http://aviationweather.gov/metar/data/
 
METAR text: HSSS 160700Z 35011KT CAVOK 20/M98 Q1018 NOSIG
Conditions at: HSSS (KHARTOUM (CIV/MI, SD) observed 0700 UTC 16 January 2019
Temperature: 20.0°C (68°F)
Dewpoint: 0.0°C (32°F) [RH = 26%]
Pressure (altimeter): 30.06 inches Hg (1018.0 mb)
Winds: from the N (350 degrees) at 13 MPH (11 knots; 5.7 m/s)
Visibility: 6 or more miles (10+ km)
Ceiling: ceiling and visibility are OK
Clouds: unknown
Weather: no significant weather observed at this time

METAR text: HSSS 160630Z 36010KT CAVOK 20/M07 Q1017 NOSIG
Conditions at: HSSS (KHARTOUM (CIV/MI, SD) observed 0630 UTC 16 January 2019
Temperature: 20.0°C (68°F)
Dewpoint: -7.0°C (19°F) [RH = 15%]
Pressure (altimeter): 30.03 inches Hg (1017.0 mb)
Winds: from the N (360 degrees) at 12 MPH (10 knots; 5.1 m/s)
Visibility: 6 or more miles (10+ km)
Ceiling: ceiling and visibility are OK
Clouds: unknown
Weather: no significant weather observed at this time

Forecast for: HSSS (KHARTOUM (CIV/MI, SD)
Text: TAF HSSS 160500Z 1606/1712 34009G19KT CAVOK
Forecast period: 0600 UTC 16 January 2019 to 1200 UTC 17 January 2019
Forecast type: FROM: standard forecast or significant change
Winds: from the NNW (340 degrees) at 10 MPH (9 knots; 4.6 m/s)
gusting to 22 MPH (19 knots; 9.8 m/s)
Visibility: 6 or more miles 10+ km)
Ceiling: unknown
Clouds: missing
Weather: NSW  (no significant weather)
Text: PROB30
Forecast period: 0600 to 0900 UTC 16 January 2019
Forecast type: TEMPORARY: The following changes expected for less than half the time period
Visibility: 3 miles (5 km)
Ceiling: unknown
Clouds: missing
Weather: no significant weather forecast for this period
Text: TEMPO 1606/1609 5000
Forecast period: 1200 to 1600 UTC 16 January 2019
Forecast type: TEMPORARY: The following changes expected for less than half the time period
Visibility: 2.49 miles (4.01 km)
Ceiling: unknown
Clouds: missing
Weather: BLSA  (blowing sand)
Text: PROB30
Forecast period: 0600 to 1200 UTC 17 January 2019
Forecast type: TEMPORARY: The following changes expected for less than half the time period
Winds: from the NNW (330 degrees) at 9 MPH (8 knots; 4.1 m/s)
Visibility: 2.49 miles (4.01 km)
Ceiling: unknown
Clouds: missing
Weather: HZ  (haze)

 AIRPORT MAP

 RUNWAY INFORMATION
Runway 18 Runway length 9751 ft Runway width 148 ft
Runway elevation 1265 ft Runway displaced threshold 0 ft Runway heading 177
Runway 36 Runway length 9751 ft Runway width 148 ft
Runway elevation 1260 ft Runway displaced threshold 0 ft Runway heading 357

 AIRPORT FREQUENCIES
Type APP Name Khartoum A Frequency 124.7 MHZ
Type EMR Name FIRE Frequency 121.9 MHZ
Type North Area Name North Sect Frequency 125.4 MHZ
Type South Area Name South Sect Frequency 127.3 MHZ
Type TWR Name Khartoum T Frequency 119.2 MHZ

 AIRPORT NEAR NAVIGATION AIDS
Type VOR-DME Name Khartoum Frequency 112100 KHZ